sensor_id;sensor_type;location;lat;lon;timestamp;P1;durP1;ratioP1;P2;durP2;ratioP2
35644;SDS011;21764;52.042;6.830;2022-09-20T00:03:39;20.05;;;3.25;;
35644;SDS011;21764;52.042;6.830;2022-09-20T00:08:43;20.02;;;2.92;;
35644;SDS011;21764;52.042;6.830;2022-09-20T00:13:45;21.40;;;2.95;;
35644;SDS011;21764;52.042;6.830;2022-09-20T00:18:50;19.33;;;4.35;;
35644;SDS011;21764;52.042;6.830;2022-09-20T00:23:52;13.75;;;2.83;;
35644;SDS011;21764;52.042;6.830;2022-09-20T00:28:54;19.88;;;4.05;;
35644;SDS011;21764;52.042;6.830;2022-09-20T00:33:56;20.58;;;3.42;;
35644;SDS011;21764;52.042;6.830;2022-09-20T00:39:16;17.33;;;3.03;;
35644;SDS011;21764;52.042;6.830;2022-09-20T00:49:56;22.20;;;3.63;;
35644;SDS011;21764;52.042;6.830;2022-09-20T00:55:18;14.27;;;3.53;;
35644;SDS011;21764;52.042;6.830;2022-09-20T01:00:19;27.58;;;3.70;;
35644;SDS011;21764;52.042;6.830;2022-09-20T01:05:20;20.35;;;3.70;;
35644;SDS011;21764;52.042;6.830;2022-09-20T01:10:21;24.42;;;3.95;;
35644;SDS011;21764;52.042;6.830;2022-09-20T01:15:22;15.35;;;3.38;;
35644;SDS011;21764;52.042;6.830;2022-09-20T01:20:28;22.02;;;3.58;;
35644;SDS011;21764;52.042;6.830;2022-09-20T01:30:53;17.40;;;3.92;;
35644;SDS011;21764;52.042;6.830;2022-09-20T01:36:08;24.83;;;4.40;;
35644;SDS011;21764;52.042;6.830;2022-09-20T02:20:51;27.85;;;3.92;;
35644;SDS011;21764;52.042;6.830;2022-09-20T03:53:51;17.60;;;6.65;;
35644;SDS011;21764;52.042;6.830;2022-09-20T04:10:02;26.85;;;6.88;;
35644;SDS011;21764;52.042;6.830;2022-09-20T04:20:46;22.17;;;6.47;;
35644;SDS011;21764;52.042;6.830;2022-09-20T04:26:06;20.08;;;7.13;;
35644;SDS011;21764;52.042;6.830;2022-09-20T04:42:02;25.85;;;7.80;;
35644;SDS011;21764;52.042;6.830;2022-09-20T05:09:30;16.38;;;6.75;;
35644;SDS011;21764;52.042;6.830;2022-09-20T05:29:58;23.98;;;5.88;;
35644;SDS011;21764;52.042;6.830;2022-09-20T05:35:05;19.40;;;6.80;;
35644;SDS011;21764;52.042;6.830;2022-09-20T05:40:29;47.17;;;15.85;;
35644;SDS011;21764;52.042;6.830;2022-09-20T05:51:30;22.40;;;6.30;;
35644;SDS011;21764;52.042;6.830;2022-09-20T05:56:54;25.92;;;6.82;;
35644;SDS011;21764;52.042;6.830;2022-09-20T06:23:30;15.23;;;6.30;;
35644;SDS011;21764;52.042;6.830;2022-09-20T06:28:34;15.35;;;5.72;;
35644;SDS011;21764;52.042;6.830;2022-09-20T06:33:43;22.33;;;5.60;;
35644;SDS011;21764;52.042;6.830;2022-09-20T06:44:30;16.42;;;4.30;;
35644;SDS011;21764;52.042;6.830;2022-09-20T06:49:31;12.80;;;4.65;;
35644;SDS011;21764;52.042;6.830;2022-09-20T06:54:34;16.60;;;4.65;;
35644;SDS011;21764;52.042;6.830;2022-09-20T06:59:36;20.33;;;5.13;;
35644;SDS011;21764;52.042;6.830;2022-09-20T07:04:37;14.52;;;4.45;;
35644;SDS011;21764;52.042;6.830;2022-09-20T07:09:38;25.20;;;4.65;;
35644;SDS011;21764;52.042;6.830;2022-09-20T07:14:39;15.45;;;4.20;;
35644;SDS011;21764;52.042;6.830;2022-09-20T07:19:40;12.38;;;3.60;;
35644;SDS011;21764;52.042;6.830;2022-09-20T07:24:41;14.88;;;4.28;;
35644;SDS011;21764;52.042;6.830;2022-09-20T07:29:43;17.83;;;2.95;;
35644;SDS011;21764;52.042;6.830;2022-09-20T07:34:45;13.80;;;2.88;;
35644;SDS011;21764;52.042;6.830;2022-09-20T07:39:46;8.13;;;2.50;;
35644;SDS011;21764;52.042;6.830;2022-09-20T07:44:46;11.05;;;2.33;;
35644;SDS011;21764;52.042;6.830;2022-09-20T07:49:47;10.57;;;2.20;;
35644;SDS011;21764;52.042;6.830;2022-09-20T07:54:48;19.35;;;3.05;;
35644;SDS011;21764;52.042;6.830;2022-09-20T07:59:49;11.13;;;2.50;;
35644;SDS011;21764;52.042;6.830;2022-09-20T08:04:49;7.32;;;1.80;;
35644;SDS011;21764;52.042;6.830;2022-09-20T08:09:50;8.02;;;2.00;;
35644;SDS011;21764;52.042;6.830;2022-09-20T08:14:51;8.82;;;2.25;;
35644;SDS011;21764;52.042;6.830;2022-09-20T08:19:51;8.30;;;1.88;;
35644;SDS011;21764;52.042;6.830;2022-09-20T08:24:52;6.07;;;1.80;;
35644;SDS011;21764;52.042;6.830;2022-09-20T08:29:53;5.18;;;2.10;;
35644;SDS011;21764;52.042;6.830;2022-09-20T08:34:56;7.68;;;2.42;;
35644;SDS011;21764;52.042;6.830;2022-09-20T08:39:56;5.65;;;1.52;;
35644;SDS011;21764;52.042;6.830;2022-09-20T08:44:58;8.35;;;2.20;;
35644;SDS011;21764;52.042;6.830;2022-09-20T08:50:13;11.52;;;1.90;;
35644;SDS011;21764;52.042;6.830;2022-09-20T08:55:24;8.48;;;2.00;;
35644;SDS011;21764;52.042;6.830;2022-09-20T09:00:31;7.90;;;1.95;;
35644;SDS011;21764;52.042;6.830;2022-09-20T09:05:35;12.60;;;2.35;;
35644;SDS011;21764;52.042;6.830;2022-09-20T09:11:06;9.40;;;1.90;;
35644;SDS011;21764;52.042;6.830;2022-09-20T09:16:15;7.28;;;1.98;;
35644;SDS011;21764;52.042;6.830;2022-09-20T09:21:18;7.28;;;1.60;;
35644;SDS011;21764;52.042;6.830;2022-09-20T09:26:34;4.28;;;1.40;;
35644;SDS011;21764;52.042;6.830;2022-09-20T09:31:37;7.25;;;1.33;;
35644;SDS011;21764;52.042;6.830;2022-09-20T09:36:44;6.20;;;1.58;;
35644;SDS011;21764;52.042;6.830;2022-09-20T09:41:45;5.63;;;1.30;;
35644;SDS011;21764;52.042;6.830;2022-09-20T09:46:46;5.43;;;1.48;;
35644;SDS011;21764;52.042;6.830;2022-09-20T10:07:52;7.65;;;1.40;;
35644;SDS011;21764;52.042;6.830;2022-09-20T10:13:09;4.85;;;1.15;;
35644;SDS011;21764;52.042;6.830;2022-09-20T10:23:29;3.10;;;0.85;;
35644;SDS011;21764;52.042;6.830;2022-09-20T10:28:55;5.07;;;1.30;;
35644;SDS011;21764;52.042;6.830;2022-09-20T10:39:35;7.20;;;1.40;;
35644;SDS011;21764;52.042;6.830;2022-09-20T11:00:54;8.63;;;1.33;;
35644;SDS011;21764;52.042;6.830;2022-09-20T11:11:36;4.75;;;1.10;;
35644;SDS011;21764;52.042;6.830;2022-09-20T11:17:00;9.80;;;1.57;;
35644;SDS011;21764;52.042;6.830;2022-09-20T11:22:12;9.10;;;1.40;;
35644;SDS011;21764;52.042;6.830;2022-09-20T11:27:19;6.63;;;1.30;;
35644;SDS011;21764;52.042;6.830;2022-09-20T11:32:29;9.93;;;1.48;;
35644;SDS011;21764;52.042;6.830;2022-09-20T11:37:39;13.82;;;1.60;;
35644;SDS011;21764;52.042;6.830;2022-09-20T11:42:44;9.35;;;1.80;;
35644;SDS011;21764;52.042;6.830;2022-09-20T11:47:48;8.73;;;1.50;;
35644;SDS011;21764;52.042;6.830;2022-09-20T11:58:08;10.07;;;1.80;;
35644;SDS011;21764;52.042;6.830;2022-09-20T12:03:54;8.90;;;2.28;;
35644;SDS011;21764;52.042;6.830;2022-09-20T12:08:38;8.75;;;1.30;;
35644;SDS011;21764;52.042;6.830;2022-09-20T12:13:41;7.25;;;1.60;;
35644;SDS011;21764;52.042;6.830;2022-09-20T12:28:58;7.43;;;1.55;;
35644;SDS011;21764;52.042;6.830;2022-09-20T12:39:26;12.93;;;1.83;;
35644;SDS011;21764;52.042;6.830;2022-09-20T12:44:37;5.65;;;1.40;;
35644;SDS011;21764;52.042;6.830;2022-09-20T12:55:04;7.35;;;1.30;;
35644;SDS011;21764;52.042;6.830;2022-09-20T13:00:06;7.72;;;1.33;;
35644;SDS011;21764;52.042;6.830;2022-09-20T13:05:31;6.93;;;1.30;;
35644;SDS011;21764;52.042;6.830;2022-09-20T13:10:38;9.02;;;1.70;;
35644;SDS011;21764;52.042;6.830;2022-09-20T13:15:46;8.35;;;1.10;;
35644;SDS011;21764;52.042;6.830;2022-09-20T13:20:49;6.05;;;1.42;;
35644;SDS011;21764;52.042;6.830;2022-09-20T13:25:50;9.07;;;1.88;;
35644;SDS011;21764;52.042;6.830;2022-09-20T13:36:23;6.15;;;1.35;;
35644;SDS011;21764;52.042;6.830;2022-09-20T13:41:26;14.32;;;1.60;;
35644;SDS011;21764;52.042;6.830;2022-09-20T13:46:31;8.10;;;1.48;;
35644;SDS011;21764;52.042;6.830;2022-09-20T13:51:32;6.35;;;1.70;;
35644;SDS011;21764;52.042;6.830;2022-09-20T13:56:34;6.20;;;1.75;;
35644;SDS011;21764;52.042;6.830;2022-09-20T14:01:35;4.43;;;1.20;;
35644;SDS011;21764;52.042;6.830;2022-09-20T14:06:35;9.70;;;2.17;;
35644;SDS011;21764;52.042;6.830;2022-09-20T14:11:36;10.85;;;1.60;;
35644;SDS011;21764;52.042;6.830;2022-09-20T14:16:38;8.00;;;1.42;;
35644;SDS011;21764;52.042;6.830;2022-09-20T14:21:43;5.57;;;1.20;;
35644;SDS011;21764;52.042;6.830;2022-09-20T14:26:58;5.72;;;2.00;;
35644;SDS011;21764;52.042;6.830;2022-09-20T14:37:27;16.27;;;1.92;;
35644;SDS011;21764;52.042;6.830;2022-09-20T14:42:44;8.10;;;1.90;;
35644;SDS011;21764;52.042;6.830;2022-09-20T14:58:12;8.40;;;1.67;;
35644;SDS011;21764;52.042;6.830;2022-09-20T15:03:14;13.60;;;2.92;;
35644;SDS011;21764;52.042;6.830;2022-09-20T15:08:20;10.85;;;1.92;;
35644;SDS011;21764;52.042;6.830;2022-09-20T15:13:21;8.68;;;1.55;;
35644;SDS011;21764;52.042;6.830;2022-09-20T15:23:25;9.05;;;1.80;;
35644;SDS011;21764;52.042;6.830;2022-09-20T15:28:26;8.00;;;1.20;;
35644;SDS011;21764;52.042;6.830;2022-09-20T15:33:28;11.40;;;1.42;;
35644;SDS011;21764;52.042;6.830;2022-09-20T15:38:30;6.40;;;1.37;;
35644;SDS011;21764;52.042;6.830;2022-09-20T15:43:32;9.02;;;1.38;;
35644;SDS011;21764;52.042;6.830;2022-09-20T15:48:33;8.57;;;2.10;;
35644;SDS011;21764;52.042;6.830;2022-09-20T15:53:40;9.38;;;1.67;;
35644;SDS011;21764;52.042;6.830;2022-09-20T15:58:49;6.18;;;1.75;;
35644;SDS011;21764;52.042;6.830;2022-09-20T16:03:51;10.18;;;2.35;;
35644;SDS011;21764;52.042;6.830;2022-09-20T16:08:52;7.75;;;1.90;;
35644;SDS011;21764;52.042;6.830;2022-09-20T16:13:55;7.43;;;2.17;;
35644;SDS011;21764;52.042;6.830;2022-09-20T16:18:56;14.45;;;3.80;;
35644;SDS011;21764;52.042;6.830;2022-09-20T16:24:15;14.25;;;3.85;;
35644;SDS011;21764;52.042;6.830;2022-09-20T16:29:16;13.93;;;3.90;;
35644;SDS011;21764;52.042;6.830;2022-09-20T16:34:27;14.27;;;3.67;;
35644;SDS011;21764;52.042;6.830;2022-09-20T16:39:30;10.43;;;2.53;;
35644;SDS011;21764;52.042;6.830;2022-09-20T16:44:32;10.25;;;3.05;;
35644;SDS011;21764;52.042;6.830;2022-09-20T16:49:36;10.40;;;3.13;;
35644;SDS011;21764;52.042;6.830;2022-09-20T16:54:37;7.43;;;2.83;;
35644;SDS011;21764;52.042;6.830;2022-09-20T16:59:38;8.40;;;2.40;;
35644;SDS011;21764;52.042;6.830;2022-09-20T17:04:39;11.70;;;2.70;;
35644;SDS011;21764;52.042;6.830;2022-09-20T17:09:42;10.55;;;3.90;;
35644;SDS011;21764;52.042;6.830;2022-09-20T17:14:43;9.23;;;3.67;;
35644;SDS011;21764;52.042;6.830;2022-09-20T17:19:43;11.55;;;3.90;;
35644;SDS011;21764;52.042;6.830;2022-09-20T17:24:46;12.93;;;5.63;;
35644;SDS011;21764;52.042;6.830;2022-09-20T17:29:49;16.38;;;6.88;;
35644;SDS011;21764;52.042;6.830;2022-09-20T17:34:49;19.73;;;8.30;;
35644;SDS011;21764;52.042;6.830;2022-09-20T17:39:52;18.52;;;8.13;;
35644;SDS011;21764;52.042;6.830;2022-09-20T17:44:53;14.00;;;7.22;;
35644;SDS011;21764;52.042;6.830;2022-09-20T17:49:54;17.75;;;7.97;;
35644;SDS011;21764;52.042;6.830;2022-09-20T17:54:54;19.88;;;7.80;;
35644;SDS011;21764;52.042;6.830;2022-09-20T17:59:55;16.90;;;7.90;;
35644;SDS011;21764;52.042;6.830;2022-09-20T18:04:56;19.33;;;8.73;;
35644;SDS011;21764;52.042;6.830;2022-09-20T18:09:57;16.13;;;8.27;;
35644;SDS011;21764;52.042;6.830;2022-09-20T18:14:57;20.55;;;9.93;;
35644;SDS011;21764;52.042;6.830;2022-09-20T18:19:58;22.35;;;9.55;;
35644;SDS011;21764;52.042;6.830;2022-09-20T18:24:59;21.08;;;9.18;;
35644;SDS011;21764;52.042;6.830;2022-09-20T18:30:00;21.90;;;11.75;;
35644;SDS011;21764;52.042;6.830;2022-09-20T18:35:00;20.20;;;11.02;;
35644;SDS011;21764;52.042;6.830;2022-09-20T18:40:01;15.82;;;9.48;;
35644;SDS011;21764;52.042;6.830;2022-09-20T18:45:03;16.42;;;11.27;;
35644;SDS011;21764;52.042;6.830;2022-09-20T18:50:04;21.88;;;12.15;;
35644;SDS011;21764;52.042;6.830;2022-09-20T18:55:05;25.95;;;14.00;;
35644;SDS011;21764;52.042;6.830;2022-09-20T19:00:08;22.35;;;11.57;;
35644;SDS011;21764;52.042;6.830;2022-09-20T19:10:51;27.70;;;12.95;;
35644;SDS011;21764;52.042;6.830;2022-09-20T19:16:00;23.02;;;10.90;;
35644;SDS011;21764;52.042;6.830;2022-09-20T19:26:39;23.08;;;13.32;;
35644;SDS011;21764;52.042;6.830;2022-09-20T19:31:41;21.77;;;12.32;;
35644;SDS011;21764;52.042;6.830;2022-09-20T19:47:33;17.58;;;9.95;;
35644;SDS011;21764;52.042;6.830;2022-09-20T19:52:37;17.05;;;8.45;;
35644;SDS011;21764;52.042;6.830;2022-09-20T19:57:42;19.40;;;8.63;;
35644;SDS011;21764;52.042;6.830;2022-09-20T20:02:46;18.02;;;7.57;;
35644;SDS011;21764;52.042;6.830;2022-09-20T20:07:48;20.15;;;6.95;;
35644;SDS011;21764;52.042;6.830;2022-09-20T20:29:45;12.68;;;5.53;;
35644;SDS011;21764;52.042;6.830;2022-09-20T20:34:46;14.07;;;4.90;;
35644;SDS011;21764;52.042;6.830;2022-09-20T20:39:47;13.80;;;4.65;;
35644;SDS011;21764;52.042;6.830;2022-09-20T20:44:47;13.27;;;4.18;;
35644;SDS011;21764;52.042;6.830;2022-09-20T20:49:48;9.60;;;4.68;;
35644;SDS011;21764;52.042;6.830;2022-09-20T20:54:52;12.75;;;4.35;;
35644;SDS011;21764;52.042;6.830;2022-09-20T20:59:52;10.43;;;4.55;;
35644;SDS011;21764;52.042;6.830;2022-09-20T21:04:53;15.63;;;5.10;;
35644;SDS011;21764;52.042;6.830;2022-09-20T21:09:54;11.98;;;4.72;;
35644;SDS011;21764;52.042;6.830;2022-09-20T21:14:54;11.30;;;5.38;;
35644;SDS011;21764;52.042;6.830;2022-09-20T21:19:55;16.50;;;5.82;;
35644;SDS011;21764;52.042;6.830;2022-09-20T21:24:56;12.68;;;6.07;;
35644;SDS011;21764;52.042;6.830;2022-09-20T21:29:57;16.48;;;5.78;;
35644;SDS011;21764;52.042;6.830;2022-09-20T21:34:57;20.60;;;5.90;;
35644;SDS011;21764;52.042;6.830;2022-09-20T21:39:58;15.90;;;6.97;;
35644;SDS011;21764;52.042;6.830;2022-09-20T21:44:59;15.35;;;6.93;;
35644;SDS011;21764;52.042;6.830;2022-09-20T21:50:00;14.52;;;6.13;;
35644;SDS011;21764;52.042;6.830;2022-09-20T21:55:01;15.10;;;6.57;;
35644;SDS011;21764;52.042;6.830;2022-09-20T22:00:03;16.77;;;6.88;;
35644;SDS011;21764;52.042;6.830;2022-09-20T22:05:04;21.60;;;7.65;;
35644;SDS011;21764;52.042;6.830;2022-09-20T22:10:05;12.02;;;7.10;;
35644;SDS011;21764;52.042;6.830;2022-09-20T22:15:06;15.98;;;6.60;;
35644;SDS011;21764;52.042;6.830;2022-09-20T22:20:08;11.20;;;6.63;;
35644;SDS011;21764;52.042;6.830;2022-09-20T22:25:09;12.70;;;6.68;;
35644;SDS011;21764;52.042;6.830;2022-09-20T22:30:09;16.23;;;7.28;;
35644;SDS011;21764;52.042;6.830;2022-09-20T22:35:11;15.43;;;7.20;;
35644;SDS011;21764;52.042;6.830;2022-09-20T22:40:11;23.52;;;7.68;;
35644;SDS011;21764;52.042;6.830;2022-09-20T22:45:12;17.90;;;9.60;;
35644;SDS011;21764;52.042;6.830;2022-09-20T22:50:13;21.45;;;9.00;;
35644;SDS011;21764;52.042;6.830;2022-09-20T22:55:14;21.33;;;7.90;;
35644;SDS011;21764;52.042;6.830;2022-09-20T23:00:14;15.38;;;8.60;;
35644;SDS011;21764;52.042;6.830;2022-09-20T23:05:15;17.27;;;9.10;;
35644;SDS011;21764;52.042;6.830;2022-09-20T23:10:18;15.05;;;7.70;;
35644;SDS011;21764;52.042;6.830;2022-09-20T23:15:18;12.70;;;6.97;;
35644;SDS011;21764;52.042;6.830;2022-09-20T23:20:19;16.88;;;8.10;;
35644;SDS011;21764;52.042;6.830;2022-09-20T23:25:20;15.80;;;7.78;;
35644;SDS011;21764;52.042;6.830;2022-09-20T23:30:20;18.08;;;7.38;;
35644;SDS011;21764;52.042;6.830;2022-09-20T23:35:21;15.05;;;7.70;;
35644;SDS011;21764;52.042;6.830;2022-09-20T23:46:20;16.70;;;8.27;;
35644;SDS011;21764;52.042;6.830;2022-09-20T23:51:43;15.43;;;8.57;;
35644;SDS011;21764;52.042;6.830;2022-09-20T23:57:21;17.40;;;7.82;;
